Albertville, Alabama
Current Conditions -  °F | °C
As of 4:15 PM on Friday 24 Oct 2014 (Local Time) from K8A0 Reporting Station
Clear Clear  
Wind Chill: 68°   Ceiling: Unl
Heat Index: 68°   Visibility: 10mi
Dew Point: 46°   Wind: 5mph
Humidity: 46%   Direction: 350°N
Pressure: 30.04"   Gusts: NA
Location:  34.27°N, 86.21°W
Report Text: K8A0 242115Z AUTO 35004KT 10SM CLR 20/08 A3004 RMK AO2
Loading
Personal Weather Stations






























Interactive Weather Map
Tropical Storm Tracking
New forecast layout! Learn more

10-Day Weather Forecast

Advertisements
Track Severe Weather on mobile